createdAt,value
2022-08-04T00:02:18.502Z,99156.14
2022-08-04T00:04:54.617Z,99155.05
2022-08-04T00:07:42.458Z,99153.20
2022-08-04T00:10:13.024Z,99153.48
2022-08-04T00:12:46.625Z,99155.52
2022-08-04T00:15:16.650Z,99154.64
2022-08-04T00:17:46.357Z,99152.41
2022-08-04T00:20:18.607Z,99150.97
2022-08-04T00:22:48.165Z,99150.48
2022-08-04T00:25:15.004Z,99150.86
2022-08-04T00:27:42.175Z,99154.11
2022-08-04T00:30:10.323Z,99155.23
2022-08-04T00:32:41.521Z,99149.29
2022-08-04T00:35:13.853Z,99155.61
2022-08-04T00:37:43.249Z,99154.98
2022-08-04T00:40:46.007Z,99158.13
2022-08-04T00:43:23.962Z,99151.56
2022-08-04T00:46:16.180Z,99152.91
2022-08-04T00:49:16.395Z,99151.33
2022-08-04T00:52:32.141Z,99153.48
2022-08-04T00:55:27.312Z,99149.33
2022-08-04T00:58:05.957Z,99150.38
2022-08-04T01:00:58.889Z,99153.28
2022-08-04T01:04:09.460Z,99151.27
2022-08-04T01:07:04.076Z,99155.35
2022-08-04T01:09:49.391Z,99153.49
2022-08-04T01:12:24.987Z,99154.48
2022-08-04T01:15:06.304Z,99150.39
2022-08-04T01:17:35.707Z,99152.90
2022-08-04T01:20:08.249Z,99154.04
2022-08-04T01:23:02.874Z,99154.16
2022-08-04T01:25:38.519Z,99152.74
2022-08-04T01:28:30.469Z,99157.06
2022-08-04T01:31:12.911Z,99155.05
2022-08-04T01:33:58.591Z,99156.60
2022-08-04T01:36:35.299Z,99149.19
2022-08-04T01:39:23.634Z,99153.97
2022-08-04T01:41:57.782Z,99152.83
2022-08-04T01:44:30.909Z,99151.17
2022-08-04T01:46:59.838Z,99150.23
2022-08-04T01:49:30.119Z,99147.24
2022-08-04T01:52:08.716Z,99147.69
2022-08-04T01:54:37.769Z,99150.88
2022-08-04T01:57:37.831Z,99150.46
2022-08-04T01:59:53.015Z,99148.91
2022-08-04T02:02:23.898Z,99144.63
2022-08-04T02:04:51.629Z,99146.23
2022-08-04T02:07:40.262Z,99145.80
2022-08-04T02:10:18.223Z,99147.04
2022-08-04T02:12:51.947Z,99144.67
2022-08-04T02:15:42.651Z,99141.64
2022-08-04T02:18:19.393Z,99137.27
2022-08-04T02:20:48.953Z,99138.59
2022-08-04T02:23:28.033Z,99135.95
2022-08-04T02:26:12.602Z,99137.26
2022-08-04T02:29:11.035Z,99134.66
2022-08-04T02:32:03.830Z,99133.19
2022-08-04T02:35:04.392Z,99133.11
2022-08-04T02:37:32.628Z,99133.70
2022-08-04T02:40:03.113Z,99129.05
2022-08-04T02:42:31.892Z,99127.96
2022-08-04T02:44:59.857Z,99127.15
2022-08-04T02:48:08.243Z,99130.90
2022-08-04T02:50:29.173Z,99128.48
2022-08-04T02:53:00.119Z,99126.48
2022-08-04T02:55:29.217Z,99124.40
2022-08-04T02:57:58.125Z,99121.66
2022-08-04T03:00:25.882Z,99125.03
2022-08-04T03:03:02.043Z,99124.80
2022-08-04T03:05:49.966Z,99126.10
2022-08-04T03:08:28.501Z,99128.54
2022-08-04T03:11:43.428Z,99125.95
2022-08-04T03:14:28.485Z,99130.70
2022-08-04T03:17:20.098Z,99130.76
2022-08-04T03:20:10.542Z,99134.77
2022-08-04T03:23:13.104Z,99136.96
2022-08-04T03:26:38.524Z,99138.55
2022-08-04T03:29:26.056Z,99140.02
2022-08-04T03:32:29.221Z,99138.70
2022-08-04T03:35:23.334Z,99138.61
2022-08-04T03:38:05.082Z,99135.73
2022-08-04T03:41:00.351Z,99132.31
2022-08-04T03:44:01.109Z,99132.38
2022-08-04T03:46:46.735Z,99134.49
2022-08-04T03:49:40.227Z,99134.27
2022-08-04T03:52:49.151Z,99134.86
2022-08-04T03:55:36.261Z,99136.92
2022-08-04T03:58:34.172Z,99134.96
2022-08-04T04:01:17.333Z,99136.88
2022-08-04T04:04:12.498Z,99133.05
2022-08-04T04:06:57.310Z,99133.13
2022-08-04T04:10:07.386Z,99134.34
2022-08-04T04:12:43.617Z,99132.20
2022-08-04T04:15:28.997Z,99131.59
2022-08-04T04:18:16.538Z,99132.14
2022-08-04T04:21:04.948Z,99136.77
2022-08-04T04:23:50.428Z,99132.92
2022-08-04T04:26:44.750Z,99131.23
2022-08-04T04:29:38.091Z,99132.33
2022-08-04T04:32:28.228Z,99130.86
2022-08-04T04:35:10.731Z,99123.89
2022-08-04T04:37:54.463Z,99125.73
2022-08-04T04:40:30.855Z,99121.41
2022-08-04T04:43:50.859Z,99125.08
2022-08-04T04:46:36.478Z,99124.31
2022-08-04T04:49:22.767Z,99126.91
2022-08-04T04:51:57.856Z,99130.59
2022-08-04T04:55:05.957Z,99134.69
2022-08-04T04:57:54.748Z,99135.55
2022-08-04T05:00:25.824Z,99133.15
2022-08-04T05:03:01.098Z,99128.45
2022-08-04T05:05:47.195Z,99130.27
2022-08-04T05:08:43.945Z,99127.45
2022-08-04T05:11:48.631Z,99129.92
2022-08-04T05:14:41.394Z,99133.94
2022-08-04T05:17:25.060Z,99130.09
2022-08-04T05:19:51.427Z,99130.94
2022-08-04T05:22:24.931Z,99131.66
2022-08-04T05:25:01.531Z,99126.77
2022-08-04T05:27:39.697Z,99129.98
2022-08-04T05:30:08.875Z,99129.59
2022-08-04T05:32:44.175Z,99128.83
2022-08-04T05:35:38.961Z,99132.81
2022-08-04T05:38:07.433Z,99130.92
2022-08-04T05:40:34.369Z,99132.88
2022-08-04T05:43:01.910Z,99136.38
2022-08-04T05:45:29.880Z,99140.52
2022-08-04T05:48:08.741Z,99137.90
2022-08-04T05:50:36.426Z,99134.18
2022-08-04T05:53:05.677Z,99130.45
2022-08-04T05:55:58.286Z,99129.84
2022-08-04T05:58:21.366Z,99135.08
2022-08-04T06:00:52.515Z,99135.27
2022-08-04T06:03:20.845Z,99136.24
2022-08-04T06:05:48.630Z,99137.42
2022-08-04T06:08:15.432Z,99134.09
2022-08-04T06:10:45.592Z,99137.89
2022-08-04T06:13:48.018Z,99136.20
2022-08-04T06:16:08.317Z,99142.45
2022-08-04T06:20:01.891Z,99142.54
2022-08-04T06:21:43.961Z,99142.86
2022-08-04T06:24:17.207Z,99142.75
2022-08-04T06:26:46.769Z,99136.57
2022-08-04T06:29:23.230Z,99137.98
2022-08-04T06:32:27.960Z,99137.80
2022-08-04T06:34:46.980Z,99134.69
2022-08-04T06:37:41.415Z,99136.70
2022-08-04T06:40:04.134Z,99133.59
2022-08-04T06:42:52.194Z,99137.48
2022-08-04T06:45:19.820Z,99133.15
2022-08-04T06:47:47.552Z,99135.05
2022-08-04T06:51:25.042Z,99134.59
2022-08-04T06:53:04.193Z,99133.09
2022-08-04T06:55:32.894Z,99132.20
2022-08-04T06:58:03.916Z,99132.09
2022-08-04T07:00:31.751Z,99132.58
2022-08-04T07:02:59.342Z,99131.67
2022-08-04T07:05:26.256Z,99133.86
2022-08-04T07:07:58.029Z,99138.27
2022-08-04T07:10:27.327Z,99133.73
2022-08-04T07:12:59.215Z,99134.98
2022-08-04T07:15:27.173Z,99131.55
2022-08-04T07:17:59.287Z,99131.98
2022-08-04T07:20:35.289Z,99130.48
2022-08-04T07:23:06.657Z,99132.31
2022-08-04T07:26:00.877Z,99132.08
2022-08-04T07:28:28.983Z,99131.48
2022-08-04T07:31:02.807Z,99132.23
2022-08-04T07:33:29.749Z,99133.80
2022-08-04T07:36:05.070Z,99131.17
2022-08-04T07:38:37.432Z,99131.71
2022-08-04T07:41:35.362Z,99130.63
2022-08-04T07:43:54.264Z,99131.29
2022-08-04T07:46:21.433Z,99133.05
2022-08-04T07:48:49.185Z,99133.06
2022-08-04T07:51:16.918Z,99135.55
2022-08-04T07:53:54.714Z,99130.41
2022-08-04T07:56:25.045Z,99132.35
2022-08-04T07:58:51.859Z,99132.59
2022-08-04T08:01:19.439Z,99127.88
2022-08-04T08:03:47.865Z,99125.46
2022-08-04T08:06:17.200Z,99124.68
2022-08-04T08:09:02.076Z,99125.44
2022-08-04T08:12:36.636Z,99125.31
2022-08-04T08:14:27.798Z,99125.23
2022-08-04T08:16:54.510Z,99126.58
2022-08-04T08:19:21.194Z,99124.81
2022-08-04T08:22:00.074Z,99121.59
2022-08-04T08:24:29.492Z,99121.79
2022-08-04T08:26:57.458Z,99118.03
2022-08-04T08:29:25.505Z,99118.20
2022-08-04T08:31:57.265Z,99118.23
2022-08-04T08:34:28.942Z,99116.98
2022-08-04T08:37:02.451Z,99116.19
2022-08-04T08:39:38.243Z,99121.71
2022-08-04T08:42:35.964Z,99119.83
2022-08-04T08:45:36.929Z,99121.00
2022-08-04T08:48:21.013Z,99119.39
2022-08-04T08:51:11.274Z,99121.72
2022-08-04T08:53:44.777Z,99119.58
2022-08-04T08:56:16.174Z,99116.30
2022-08-04T08:59:25.913Z,99115.73
2022-08-04T09:02:17.835Z,99117.15
2022-08-04T09:04:45.950Z,99115.63
2022-08-04T09:07:34.934Z,99115.66
2022-08-04T09:10:30.586Z,99116.95
2022-08-04T09:13:16.294Z,99117.37
2022-08-04T09:16:12.907Z,99116.02
2022-08-04T09:18:55.800Z,99116.02
2022-08-04T09:21:43.434Z,99117.56
2022-08-04T09:24:35.249Z,99113.03
2022-08-04T09:27:13.981Z,99110.64
2022-08-04T09:30:03.817Z,99113.61
2022-08-04T09:32:44.273Z,99111.02
2022-08-04T09:35:46.461Z,99109.40
2022-08-04T09:38:41.914Z,99103.20
2022-08-04T09:41:48.329Z,99106.20
2022-08-04T09:44:50.632Z,99100.35
2022-08-04T09:47:40.199Z,99095.40
2022-08-04T09:50:34.502Z,99096.79
2022-08-04T09:53:24.312Z,99095.92
2022-08-04T09:56:19.175Z,99092.58
2022-08-04T09:59:12.063Z,99098.95
2022-08-04T10:01:44.261Z,99099.91
2022-08-04T10:04:19.234Z,99099.18
2022-08-04T10:07:17.885Z,99099.00
2022-08-04T10:09:52.022Z,99098.00
2022-08-04T10:12:32.105Z,99096.33
2022-08-04T10:15:16.563Z,99095.78
2022-08-04T10:18:10.232Z,99089.61
2022-08-04T10:21:01.353Z,99089.45
2022-08-04T10:24:00.137Z,99088.05
2022-08-04T10:26:34.323Z,99082.48
2022-08-04T10:29:16.795Z,99082.33
2022-08-04T10:31:56.774Z,99077.80
2022-08-04T10:34:29.565Z,99078.91
2022-08-04T10:37:00.246Z,99076.16
2022-08-04T10:40:07.001Z,99070.23
2022-08-04T10:42:42.451Z,99068.39
2022-08-04T10:45:26.357Z,99071.47
2022-08-04T10:48:34.163Z,99066.44
2022-08-04T10:51:20.532Z,99063.52
2022-08-04T10:53:54.981Z,99060.59
2022-08-04T10:56:31.405Z,99057.70
2022-08-04T10:59:03.687Z,99062.05
2022-08-04T11:02:01.283Z,99060.29
2022-08-04T11:04:40.951Z,99061.27
2022-08-04T11:07:08.428Z,99064.80
2022-08-04T11:09:35.410Z,99061.44
2022-08-04T11:12:21.097Z,99056.98
2022-08-04T11:15:11.372Z,99055.27
2022-08-04T11:17:43.220Z,99047.19
2022-08-04T11:20:38.235Z,99048.39
2022-08-04T11:23:10.218Z,99049.77
2022-08-04T11:25:51.794Z,99053.59
2022-08-04T11:28:32.251Z,99058.38
2022-08-04T11:31:16.130Z,99060.85
2022-08-04T11:33:58.336Z,99055.41
2022-08-04T11:36:41.484Z,99062.73
2022-08-04T11:39:35.044Z,99065.23
2022-08-04T11:42:21.175Z,99056.42
2022-08-04T11:45:18.624Z,99058.78
2022-08-04T11:48:22.638Z,99052.36
2022-08-04T11:50:54.015Z,99050.83
2022-08-04T11:53:26.754Z,99054.37
2022-08-04T11:56:15.224Z,99048.39
2022-08-04T11:59:00.956Z,99045.83
2022-08-04T12:01:42.890Z,99037.84
2022-08-04T12:04:42.839Z,99043.04
2022-08-04T12:07:42.285Z,99050.67
2022-08-04T12:10:41.779Z,99047.58
2022-08-04T12:13:34.887Z,99046.06
2022-08-04T12:16:17.440Z,99044.14
2022-08-04T12:18:46.862Z,99038.73
2022-08-04T12:21:38.820Z,99035.00
2022-08-04T12:24:19.800Z,99029.17
2022-08-04T12:26:55.316Z,99030.95
2022-08-04T12:29:23.229Z,99029.55
2022-08-04T12:32:21.746Z,99029.11
2022-08-04T12:35:07.445Z,99029.18
2022-08-04T12:37:56.230Z,99026.31
2022-08-04T12:40:30.115Z,99030.61
2022-08-04T12:43:17.477Z,99023.73
2022-08-04T12:45:49.249Z,99020.66
2022-08-04T12:48:21.425Z,99017.10
2022-08-04T12:50:53.338Z,99019.52
2022-08-04T12:53:31.769Z,99017.42
2022-08-04T12:56:01.358Z,99014.84
2022-08-04T12:58:42.824Z,99013.53
2022-08-04T13:02:05.753Z,99008.89
2022-08-04T13:04:29.039Z,99007.66
2022-08-04T13:07:11.540Z,99011.98
2022-08-04T13:09:38.727Z,99015.16
2022-08-04T13:12:12.479Z,99010.02
2022-08-04T13:14:44.837Z,99007.15
2022-08-04T13:17:12.055Z,99002.89
2022-08-04T13:19:47.072Z,98994.92
2022-08-04T13:22:26.687Z,98993.85
2022-08-04T13:24:56.915Z,98992.21
2022-08-04T13:27:46.342Z,98983.60
2022-08-04T13:30:23.192Z,98986.03
2022-08-04T13:33:01.482Z,98977.84
2022-08-04T13:35:54.721Z,98975.52
2022-08-04T13:38:21.379Z,98974.35
2022-08-04T13:40:49.060Z,98979.17
2022-08-04T13:44:15.495Z,98978.61
2022-08-04T13:46:33.631Z,98974.00
2022-08-04T13:49:30.943Z,98973.00
2022-08-04T13:52:01.518Z,98968.77
2022-08-04T13:54:46.840Z,98966.37
2022-08-04T13:57:28.994Z,98965.45
2022-08-04T14:00:02.975Z,98958.84
2022-08-04T14:02:42.168Z,98955.71
2022-08-04T14:05:32.551Z,98953.66
2022-08-04T14:08:19.858Z,98953.48
2022-08-04T14:10:54.830Z,98956.06
2022-08-04T14:13:41.983Z,98952.13
2022-08-04T14:16:16.976Z,98953.14
2022-08-04T14:18:43.899Z,98955.88
2022-08-04T14:21:20.225Z,98954.23
2022-08-04T14:23:59.757Z,98954.18
2022-08-04T14:26:33.936Z,98952.77
2022-08-04T14:29:26.923Z,98946.50
2022-08-04T14:32:05.568Z,98941.79
2022-08-04T14:34:41.522Z,98937.58
2022-08-04T14:37:18.480Z,98938.41
2022-08-04T14:40:08.020Z,98941.98
2022-08-04T14:42:41.268Z,98939.13
2022-08-04T14:45:08.376Z,98936.33
2022-08-04T14:47:52.038Z,98933.66
2022-08-04T14:50:32.227Z,98931.73
2022-08-04T14:53:10.467Z,98931.55
2022-08-04T14:55:38.697Z,98929.39
2022-08-04T14:58:33.911Z,98927.10
2022-08-04T15:00:57.639Z,98924.36
2022-08-04T15:03:24.730Z,98922.67
2022-08-04T15:05:55.269Z,98919.33
2022-08-04T15:08:31.361Z,98918.77
2022-08-04T15:11:02.892Z,98921.14
2022-08-04T15:13:31.912Z,98917.41
2022-08-04T15:16:07.278Z,98911.07
2022-08-04T15:18:36.974Z,98913.77
2022-08-04T15:21:05.281Z,98905.74
2022-08-04T15:23:38.602Z,98912.88
2022-08-04T15:26:12.211Z,98907.96
2022-08-04T15:28:41.900Z,98907.96
2022-08-04T15:31:10.556Z,98906.55
2022-08-04T15:33:56.660Z,98905.88
2022-08-04T15:36:33.236Z,98910.86
2022-08-04T15:39:11.017Z,98914.23
2022-08-04T15:41:55.354Z,98912.64
2022-08-04T15:45:15.635Z,98911.98
2022-08-04T15:47:42.829Z,98912.84
2022-08-04T15:50:27.945Z,98903.03
2022-08-04T15:53:01.030Z,98909.75
2022-08-04T15:55:39.557Z,98904.49
2022-08-04T15:58:15.448Z,98905.15
2022-08-04T16:00:53.380Z,98906.05
2022-08-04T16:03:59.160Z,98904.02
2022-08-04T16:06:21.963Z,98903.42
2022-08-04T16:08:57.974Z,98900.80
2022-08-04T16:11:32.342Z,98903.79
2022-08-04T16:13:59.781Z,98903.05
2022-08-04T16:16:41.731Z,98899.06
2022-08-04T16:19:34.947Z,98901.66
2022-08-04T16:22:04.400Z,98902.59
2022-08-04T16:24:38.929Z,98900.16
2022-08-04T16:27:09.650Z,98902.61
2022-08-04T16:29:46.690Z,98902.02
2022-08-04T16:32:16.286Z,98897.33
2022-08-04T16:34:56.867Z,98895.10
2022-08-04T16:37:34.568Z,98897.05
2022-08-04T16:40:22.972Z,98894.91
2022-08-04T16:42:50.068Z,98893.73
2022-08-04T16:45:18.187Z,98891.52
2022-08-04T16:47:47.664Z,98897.82
2022-08-04T16:50:17.928Z,98893.05
2022-08-04T16:52:46.250Z,98893.85
2022-08-04T16:55:21.455Z,98891.54
2022-08-04T16:57:56.715Z,98892.64
2022-08-04T17:00:36.216Z,98892.89
2022-08-04T17:03:07.498Z,98891.42
2022-08-04T17:05:38.315Z,98894.45
2022-08-04T17:08:29.080Z,98886.88
2022-08-04T17:10:55.658Z,98889.79
2022-08-04T17:14:02.054Z,98887.70
2022-08-04T17:16:20.746Z,98889.41
2022-08-04T17:18:54.167Z,98893.03
2022-08-04T17:21:30.914Z,98893.53
2022-08-04T17:24:12.814Z,98891.92
2022-08-04T17:26:45.337Z,98893.67
2022-08-04T17:29:20.026Z,98896.82
2022-08-04T17:31:47.870Z,98893.99
2022-08-04T17:34:19.140Z,98894.88
2022-08-04T17:36:48.107Z,98894.54
2022-08-04T17:39:27.009Z,98893.70
2022-08-04T17:41:56.929Z,98893.03
2022-08-04T17:44:36.586Z,98890.29
2022-08-04T17:47:18.820Z,98888.12
2022-08-04T17:49:52.774Z,98886.41
2022-08-04T17:52:45.081Z,98889.14
2022-08-04T17:55:16.344Z,98888.15
2022-08-04T17:57:52.464Z,98889.16
2022-08-04T18:00:19.862Z,98891.95
2022-08-04T18:02:54.099Z,98888.50
2022-08-04T18:05:50.185Z,98891.52
2022-08-04T18:08:45.352Z,98890.08
2022-08-04T18:11:04.302Z,98892.61
2022-08-04T18:13:31.387Z,98892.76
2022-08-04T18:16:22.860Z,98893.50
2022-08-04T18:19:12.420Z,98893.73
2022-08-04T18:21:46.478Z,98894.82
2022-08-04T18:24:34.448Z,98899.71
2022-08-04T18:27:15.078Z,98899.90
2022-08-04T18:30:15.497Z,98899.40
2022-08-04T18:32:32.955Z,98900.27
2022-08-04T18:35:05.201Z,98901.93
2022-08-04T18:38:06.648Z,98900.70
2022-08-04T18:40:26.766Z,98903.95
2022-08-04T18:43:00.162Z,98902.64
2022-08-04T18:45:34.719Z,98905.93
2022-08-04T18:51:10.226Z,98907.93
2022-08-04T18:53:37.524Z,98910.71
2022-08-04T18:56:06.075Z,98913.84
2022-08-04T18:58:33.688Z,98914.41
2022-08-04T19:01:00.651Z,98918.45
2022-08-04T19:03:32.935Z,98921.36
2022-08-04T19:06:01.500Z,98926.73
2022-08-04T19:08:34.478Z,98923.33
2022-08-04T19:11:36.925Z,98924.60
2022-08-04T19:13:54.602Z,98928.85
2022-08-04T19:16:30.569Z,98929.10
2022-08-04T19:19:00.127Z,98932.86
2022-08-04T19:22:00.393Z,98934.04
2022-08-04T19:24:31.675Z,98932.23
2022-08-04T19:27:06.348Z,98932.48
2022-08-04T19:29:37.167Z,98929.30
2022-08-04T19:32:14.154Z,98931.38
2022-08-04T19:34:46.234Z,98932.21
2022-08-04T19:37:56.889Z,98934.13
2022-08-04T19:40:06.180Z,98930.91
2022-08-04T19:42:33.035Z,98932.36
2022-08-04T19:45:00.511Z,98936.52
2022-08-04T19:48:12.017Z,98936.70
2022-08-04T19:50:15.902Z,98936.75
2022-08-04T19:52:51.559Z,98937.36
2022-08-04T19:58:10.489Z,98943.31
2022-08-04T20:00:40.392Z,98938.00
2022-08-04T20:03:12.739Z,98937.81
2022-08-04T20:05:55.189Z,98937.85
2022-08-04T20:08:33.882Z,98943.42
2022-08-04T20:11:00.449Z,98939.33
2022-08-04T20:13:36.971Z,98940.44
2022-08-04T20:16:28.672Z,98938.92
2022-08-04T20:21:56.021Z,98947.79
2022-08-04T20:24:39.944Z,98948.98
2022-08-04T20:27:16.091Z,98949.17
2022-08-04T20:29:48.293Z,98944.64
2022-08-04T20:32:31.881Z,98942.23
2022-08-04T20:34:58.710Z,98941.08
2022-08-04T20:37:54.791Z,98941.40
2022-08-04T20:40:12.883Z,98936.23
2022-08-04T20:42:40.168Z,98936.48
2022-08-04T20:45:16.327Z,98937.59
2022-08-04T20:47:45.513Z,98938.36
2022-08-04T20:50:29.897Z,98936.66
2022-08-04T20:52:58.088Z,98936.59
2022-08-04T20:55:26.569Z,98939.71
2022-08-04T20:58:02.559Z,98938.78
2022-08-04T21:00:30.865Z,98937.61
2022-08-04T21:02:58.757Z,98937.83
2022-08-04T21:05:26.401Z,98937.80
2022-08-04T21:07:56.655Z,98935.19
2022-08-04T21:10:24.748Z,98933.71
2022-08-04T21:12:53.476Z,98936.79
2022-08-04T21:15:24.663Z,98933.75
2022-08-04T21:17:59.524Z,98938.37
2022-08-04T21:23:18.860Z,98938.68
2022-08-04T21:25:45.261Z,98937.09
2022-08-04T21:28:20.489Z,98937.55
2022-08-04T21:30:52.409Z,98938.09
2022-08-04T21:33:23.161Z,98937.20
2022-08-04T21:35:54.207Z,98934.20
2022-08-04T21:38:41.753Z,98932.77
2022-08-04T21:41:08.440Z,98930.29
2022-08-04T21:43:43.182Z,98928.28
2022-08-04T21:46:10.284Z,98934.96
2022-08-04T21:48:39.197Z,98926.40
2022-08-04T21:51:55.683Z,98930.56
2022-08-04T21:54:09.143Z,98932.86
2022-08-04T21:56:37.931Z,98935.35
2022-08-04T21:59:11.497Z,98935.73
2022-08-04T22:01:50.323Z,98932.40
2022-08-04T22:04:19.283Z,98931.89
2022-08-04T22:06:51.632Z,98928.61
2022-08-04T22:09:21.601Z,98928.10
2022-08-04T22:11:50.755Z,98926.35
2022-08-04T22:14:27.129Z,98929.83
2022-08-04T22:16:56.706Z,98928.09
2022-08-04T22:19:39.640Z,98926.69
2022-08-04T22:22:12.546Z,98920.38
2022-08-04T22:24:40.553Z,98919.20
2022-08-04T22:27:11.426Z,98915.90
2022-08-04T22:29:39.408Z,98914.52
2022-08-04T22:32:11.527Z,98914.79
2022-08-04T22:34:39.612Z,98918.02
2022-08-04T22:37:12.775Z,98916.35
2022-08-04T22:39:56.117Z,98915.95
2022-08-04T22:42:23.088Z,98917.30
2022-08-04T22:44:49.476Z,98914.11
2022-08-04T22:47:20.223Z,98913.89
2022-08-04T22:49:56.590Z,98912.72
2022-08-04T22:52:31.954Z,98916.38
2022-08-04T22:54:59.528Z,98917.65
2022-08-04T22:57:43.041Z,98915.89
2022-08-04T23:00:11.353Z,98916.09
2022-08-04T23:02:37.915Z,98914.40
2022-08-04T23:05:06.025Z,98910.27
2022-08-04T23:07:34.021Z,98913.90
2022-08-04T23:10:16.481Z,98910.69
2022-08-04T23:12:51.359Z,98910.55
2022-08-04T23:15:18.255Z,98912.58
2022-08-04T23:17:47.918Z,98909.08
2022-08-04T23:20:23.649Z,98901.81
2022-08-04T23:23:00.614Z,98900.44
2022-08-04T23:26:08.384Z,98902.16
2022-08-04T23:28:32.033Z,98901.29
2022-08-04T23:30:58.508Z,98897.90
2022-08-04T23:33:24.897Z,98891.62
2022-08-04T23:36:11.934Z,98890.98
2022-08-04T23:38:39.642Z,98885.81
2022-08-04T23:41:13.552Z,98886.94
2022-08-04T23:43:55.052Z,98886.77
2022-08-04T23:46:22.834Z,98887.48
2022-08-04T23:48:51.514Z,98885.83
2022-08-04T23:51:19.171Z,98885.63
2022-08-04T23:54:02.483Z,98887.45
2022-08-04T23:56:32.261Z,98884.44
2022-08-04T23:59:00.258Z,98886.54
